Terminal Aerodrome Forecast
Issued by NWS

Home | Current Version | Previous Version | Text Only | Print | Product List | Glossary On
Versions: 1 2 3 4 5 6 7 8 9 10 11 12 13
485
FTUS42 TJSJ 010552
TAFJMZ
TAF
TJMZ 010552Z 0106/0206 06006KT P6SM SCT050 BKN120
     FM011500 21008KT P6SM FEW025 SCT050
     FM011700 24010KT 5SM -RA VCTS BKN025CB BKN100
     FM012300 06005KT P6SM FEW025 BKN090
      AMD NOT SKED=

USA.gov is the U.S. government's official web portal to all federal, state and local government web resources and services.